sensor_id;sensor_type;location;lat;lon;timestamp;pressure;altitude;pressure_sealevel;temperature;humidity
56334;BME280;42240;53.626;55.886;2022-08-21T00:00:14;75943.88;;;-145.10;76.88
56334;BME280;42240;53.626;55.886;2022-08-21T00:01:48;75933.97;;;-145.10;76.87
56334;BME280;42240;53.626;55.886;2022-08-21T00:03:25;75930.03;;;-145.10;76.71
56334;BME280;42240;53.626;55.886;2022-08-21T00:04:58;75933.97;;;-145.10;76.74
56334;BME280;42240;53.626;55.886;2022-08-21T00:06:32;75935.94;;;-145.10;76.55
56334;BME280;42240;53.626;55.886;2022-08-21T00:08:06;75935.94;;;-145.10;76.50
56334;BME280;42240;53.626;55.886;2022-08-21T00:09:40;75930.03;;;-145.10;76.53
56334;BME280;42240;53.626;55.886;2022-08-21T00:11:14;75928.03;;;-145.10;76.44
56334;BME280;42240;53.626;55.886;2022-08-21T00:12:50;75928.03;;;-145.10;76.72
56334;BME280;42240;53.626;55.886;2022-08-21T00:14:24;75928.03;;;-145.10;76.49
56334;BME280;42240;53.626;55.886;2022-08-21T00:16:03;75930.03;;;-145.10;76.59
56334;BME280;42240;53.626;55.886;2022-08-21T00:17:37;75935.94;;;-145.10;76.75
56334;BME280;42240;53.626;55.886;2022-08-21T00:19:14;75930.03;;;-145.10;76.75
56334;BME280;42240;53.626;55.886;2022-08-21T00:20:48;75935.94;;;-145.10;76.70
56334;BME280;42240;53.626;55.886;2022-08-21T00:22:21;75932.00;;;-145.10;76.77
56334;BME280;42240;53.626;55.886;2022-08-21T00:23:55;75933.97;;;-145.10;76.79
56334;BME280;42240;53.626;55.886;2022-08-21T00:25:29;75933.97;;;-145.10;76.83
56334;BME280;42240;53.626;55.886;2022-08-21T00:27:05;75943.88;;;-145.10;76.81
56334;BME280;42240;53.626;55.886;2022-08-21T00:28:39;75939.91;;;-145.10;76.92
56334;BME280;42240;53.626;55.886;2022-08-21T00:30:13;75937.94;;;-145.10;76.95
56334;BME280;42240;53.626;55.886;2022-08-21T00:31:55;75937.94;;;-145.10;76.93
56334;BME280;42240;53.626;55.886;2022-08-21T00:33:29;75935.94;;;-145.10;76.85
56334;BME280;42240;53.626;55.886;2022-08-21T00:35:04;75935.94;;;-145.10;76.89
56334;BME280;42240;53.626;55.886;2022-08-21T00:36:38;75935.94;;;-145.10;76.95
56334;BME280;42240;53.626;55.886;2022-08-21T00:38:11;75943.88;;;-145.10;76.86
56334;BME280;42240;53.626;55.886;2022-08-21T00:39:45;75943.88;;;-145.10;77.04
56334;BME280;42240;53.626;55.886;2022-08-21T00:41:18;75947.81;;;-145.10;77.10
56334;BME280;42240;53.626;55.886;2022-08-21T00:43:10;75947.81;;;-145.10;77.16
56334;BME280;42240;53.626;55.886;2022-08-21T00:44:45;75949.78;;;-145.10;77.31
56334;BME280;42240;53.626;55.886;2022-08-21T00:46:19;75959.69;;;-145.10;77.26
56334;BME280;42240;53.626;55.886;2022-08-21T00:47:55;75963.63;;;-145.10;77.49
56334;BME280;42240;53.626;55.886;2022-08-21T00:49:31;75963.63;;;-145.10;77.66
56334;BME280;42240;53.626;55.886;2022-08-21T00:51:06;75969.56;;;-145.10;77.69
56334;BME280;42240;53.626;55.886;2022-08-21T00:52:41;75971.53;;;-145.10;77.57
56334;BME280;42240;53.626;55.886;2022-08-21T00:54:16;75975.50;;;-145.10;77.94
56334;BME280;42240;53.626;55.886;2022-08-21T00:55:51;75979.44;;;-145.10;77.80
56334;BME280;42240;53.626;55.886;2022-08-21T00:57:30;75983.41;;;-145.10;78.13
56334;BME280;42240;53.626;55.886;2022-08-21T00:59:05;75979.44;;;-145.10;78.05
56334;BME280;42240;53.626;55.886;2022-08-21T01:00:41;75989.34;;;-145.10;78.11
56334;BME280;42240;53.626;55.886;2022-08-21T01:02:17;75991.31;;;-145.10;78.04
56334;BME280;42240;53.626;55.886;2022-08-21T01:03:50;75991.31;;;-145.10;78.11
56334;BME280;42240;53.626;55.886;2022-08-21T01:05:24;75995.25;;;-145.10;78.13
56334;BME280;42240;53.626;55.886;2022-08-21T01:06:58;75995.25;;;-145.10;78.34
56334;BME280;42240;53.626;55.886;2022-08-21T01:08:32;75991.31;;;-145.10;78.23
56334;BME280;42240;53.626;55.886;2022-08-21T01:10:05;75995.25;;;-145.10;78.36
56334;BME280;42240;53.626;55.886;2022-08-21T01:11:39;75997.25;;;-145.10;78.41
56334;BME280;42240;53.626;55.886;2022-08-21T01:13:15;75997.25;;;-145.10;78.48
56334;BME280;42240;53.626;55.886;2022-08-21T01:14:51;75995.25;;;-145.10;78.42
56334;BME280;42240;53.626;55.886;2022-08-21T01:16:25;76003.16;;;-145.10;78.55
56334;BME280;42240;53.626;55.886;2022-08-21T01:17:58;76003.16;;;-145.10;78.41
56334;BME280;42240;53.626;55.886;2022-08-21T01:19:32;75991.31;;;-145.10;78.14
56334;BME280;42240;53.626;55.886;2022-08-21T01:22:44;75947.81;;;-145.10;77.13
56334;BME280;42240;53.626;55.886;2022-08-21T01:24:18;75951.78;;;-145.10;76.58
56334;BME280;42240;53.626;55.886;2022-08-21T01:25:51;75933.97;;;-145.10;76.22
56334;BME280;42240;53.626;55.886;2022-08-21T01:27:25;75935.94;;;-145.10;76.10
56334;BME280;42240;53.626;55.886;2022-08-21T01:29:00;75930.03;;;-145.10;75.91
56334;BME280;42240;53.626;55.886;2022-08-21T01:30:34;75904.31;;;-145.10;75.28
56334;BME280;42240;53.626;55.886;2022-08-21T01:32:10;75858.84;;;-145.10;74.15
56334;BME280;42240;53.626;55.886;2022-08-21T01:33:43;75839.06;;;-145.10;73.17
56334;BME280;42240;53.626;55.886;2022-08-21T01:35:18;75811.41;;;-145.10;72.21
56334;BME280;42240;53.626;55.886;2022-08-21T01:36:52;75789.66;;;-145.10;71.27
56334;BME280;42240;53.626;55.886;2022-08-21T01:38:25;75787.69;;;-145.10;70.62
56334;BME280;42240;53.626;55.886;2022-08-21T01:40:00;75819.31;;;-145.10;71.05
56334;BME280;42240;53.626;55.886;2022-08-21T01:41:34;75835.13;;;-145.10;71.66
56334;BME280;42240;53.626;55.886;2022-08-21T01:43:07;75870.72;;;-145.10;72.66
56334;BME280;42240;53.626;55.886;2022-08-21T01:44:41;75892.47;;;-145.10;73.31
56334;BME280;42240;53.626;55.886;2022-08-21T01:46:15;75880.59;;;-145.10;73.49
56334;BME280;42240;53.626;55.886;2022-08-21T01:47:48;75837.09;;;-145.10;72.77
56334;BME280;42240;53.626;55.886;2022-08-21T01:49:22;75758.03;;;-145.10;70.75
56334;BME280;42240;53.626;55.886;2022-08-21T01:50:55;75746.16;;;-145.10;69.52
56334;BME280;42240;53.626;55.886;2022-08-21T01:52:29;75742.19;;;-145.10;69.19
56334;BME280;42240;53.626;55.886;2022-08-21T01:54:02;75712.56;;;-145.10;68.46
56334;BME280;42240;53.626;55.886;2022-08-21T01:55:36;75623.59;;;-145.10;66.89
56334;BME280;42240;53.626;55.886;2022-08-21T01:57:12;75584.06;;;-145.10;65.41
56334;BME280;42240;53.626;55.886;2022-08-21T01:58:47;75526.72;;;-145.10;63.89
56334;BME280;42240;53.626;55.886;2022-08-21T02:00:21;75520.78;;;-145.10;63.11
56334;BME280;42240;53.626;55.886;2022-08-21T02:01:55;75479.28;;;-145.10;61.84
56334;BME280;42240;53.626;55.886;2022-08-21T02:03:29;75459.50;;;-145.10;61.41
56334;BME280;42240;53.626;55.886;2022-08-21T02:05:08;75429.84;;;-145.10;60.47
56334;BME280;42240;53.626;55.886;2022-08-21T02:06:41;75447.66;;;-145.10;60.05
56334;BME280;42240;53.626;55.886;2022-08-21T02:08:15;75443.69;;;-145.10;59.92
56334;BME280;42240;53.626;55.886;2022-08-21T02:09:48;75429.84;;;-145.10;59.85
56334;BME280;42240;53.626;55.886;2022-08-21T02:11:22;75406.13;;;-145.10;59.07
56334;BME280;42240;53.626;55.886;2022-08-21T02:12:59;75390.31;;;-145.10;58.71
56334;BME280;42240;53.626;55.886;2022-08-21T02:14:33;75376.47;;;-145.10;58.11
56334;BME280;42240;53.626;55.886;2022-08-21T02:16:06;75336.94;;;-145.10;57.55
56334;BME280;42240;53.626;55.886;2022-08-21T02:17:46;75331.00;;;-145.10;56.84
56334;BME280;42240;53.626;55.886;2022-08-21T02:19:20;75283.56;;;-145.10;56.08
56334;BME280;42240;53.626;55.886;2022-08-21T02:20:53;75259.84;;;-145.10;55.50
56334;BME280;42240;53.626;55.886;2022-08-21T02:22:29;75251.94;;;-145.10;54.96
56334;BME280;42240;53.626;55.886;2022-08-21T02:24:02;75224.28;;;-145.10;53.89
56334;BME280;42240;53.626;55.886;2022-08-21T02:25:36;75174.84;;;-145.10;53.67
56334;BME280;42240;53.626;55.886;2022-08-21T02:27:09;75220.31;;;-145.10;53.24
56334;BME280;42240;53.626;55.886;2022-08-21T02:28:43;75157.06;;;-145.10;52.99
56334;BME280;42240;53.626;55.886;2022-08-21T02:30:18;75188.69;;;-145.10;52.63
56334;BME280;42240;53.626;55.886;2022-08-21T02:31:52;75113.56;;;-145.10;51.92
56334;BME280;42240;53.626;55.886;2022-08-21T02:33:25;75093.81;;;-145.10;51.63
56334;BME280;42240;53.626;55.886;2022-08-21T02:34:59;75076.00;;;-145.10;50.33
56334;BME280;42240;53.626;55.886;2022-08-21T02:36:33;75066.13;;;-145.10;50.02
56334;BME280;42240;53.626;55.886;2022-08-21T02:38:07;75006.84;;;-145.10;49.35
56334;BME280;42240;53.626;55.886;2022-08-21T02:39:45;74991.03;;;-145.10;48.19
56334;BME280;42240;53.626;55.886;2022-08-21T02:41:19;74996.94;;;-145.10;48.23
56334;BME280;42240;53.626;55.886;2022-08-21T02:42:53;74994.97;;;-145.10;48.26
56334;BME280;42240;53.626;55.886;2022-08-21T02:44:27;75004.84;;;-145.10;47.94
56334;BME280;42240;53.626;55.886;2022-08-21T02:46:06;74985.09;;;-145.10;47.54
56334;BME280;42240;53.626;55.886;2022-08-21T02:47:46;74987.06;;;-145.10;47.29
56334;BME280;42240;53.626;55.886;2022-08-21T02:49:20;74975.22;;;-145.10;47.47
56334;BME280;42240;53.626;55.886;2022-08-21T02:51:03;74915.91;;;-145.10;46.14
56334;BME280;42240;53.626;55.886;2022-08-21T02:52:37;74923.81;;;-145.10;45.77
56334;BME280;42240;53.626;55.886;2022-08-21T02:54:13;74868.47;;;-145.10;44.71
56334;BME280;42240;53.626;55.886;2022-08-21T02:55:47;74882.31;;;-145.10;44.78
56334;BME280;42240;53.626;55.886;2022-08-21T02:57:21;74915.91;;;-145.10;45.15
56334;BME280;42240;53.626;55.886;2022-08-21T02:58:56;74789.41;;;-145.10;43.75
56334;BME280;42240;53.626;55.886;2022-08-21T03:00:30;74785.47;;;-145.10;43.13
56334;BME280;42240;53.626;55.886;2022-08-21T03:02:04;74868.47;;;-145.10;43.38
56334;BME280;42240;53.626;55.886;2022-08-21T03:03:38;74765.69;;;-145.10;43.34
56334;BME280;42240;53.626;55.886;2022-08-21T03:05:12;74823.00;;;-145.10;42.90
56334;BME280;42240;53.626;55.886;2022-08-21T03:06:46;74738.03;;;-145.10;42.85
56334;BME280;42240;53.626;55.886;2022-08-21T03:08:20;74672.81;;;-145.10;41.80
56334;BME280;42240;53.626;55.886;2022-08-21T03:09:55;74704.44;;;-145.10;41.45
56334;BME280;42240;53.626;55.886;2022-08-21T03:11:28;74690.59;;;-145.10;40.99
56334;BME280;42240;53.626;55.886;2022-08-21T03:13:02;74670.81;;;-145.10;41.26
56334;BME280;42240;53.626;55.886;2022-08-21T03:14:36;74698.50;;;-145.10;40.92
56334;BME280;42240;53.626;55.886;2022-08-21T03:16:09;74611.53;;;-145.10;41.29
56334;BME280;42240;53.626;55.886;2022-08-21T03:17:43;74635.25;;;-145.10;40.63
56334;BME280;42240;53.626;55.886;2022-08-21T03:19:17;74660.94;;;-145.10;40.77
56334;BME280;42240;53.626;55.886;2022-08-21T03:20:53;74570.03;;;-145.10;40.43
56334;BME280;42240;53.626;55.886;2022-08-21T03:22:26;74603.63;;;-145.10;39.34
56334;BME280;42240;53.626;55.886;2022-08-21T03:24:02;74615.47;;;-145.10;39.92
56334;BME280;42240;53.626;55.886;2022-08-21T03:25:38;74508.75;;;-145.10;38.98
56334;BME280;42240;53.626;55.886;2022-08-21T03:27:13;74429.72;;;-145.10;38.33
56334;BME280;42240;53.626;55.886;2022-08-21T03:28:48;74451.44;;;-145.10;37.43
56334;BME280;42240;53.626;55.886;2022-08-21T03:30:23;74496.91;;;-145.10;37.35
56334;BME280;42240;53.626;55.886;2022-08-21T03:31:56;74406.00;;;-145.10;37.29
56334;BME280;42240;53.626;55.886;2022-08-21T03:33:30;74378.31;;;-145.10;36.62
56334;BME280;42240;53.626;55.886;2022-08-21T03:35:06;74443.53;;;-145.10;36.98
56334;BME280;42240;53.626;55.886;2022-08-21T03:36:39;74336.81;;;-145.10;36.61
56334;BME280;42240;53.626;55.886;2022-08-21T03:38:13;74398.09;;;-145.10;36.73
56334;BME280;42240;53.626;55.886;2022-08-21T03:39:47;74267.66;;;-145.10;35.75
56334;BME280;42240;53.626;55.886;2022-08-21T03:41:20;74356.59;;;-145.10;35.75
56334;BME280;42240;53.626;55.886;2022-08-21T03:42:53;74311.13;;;-145.10;35.66
56334;BME280;42240;53.626;55.886;2022-08-21T03:44:27;74406.00;;;-145.10;36.53
56334;BME280;42240;53.626;55.886;2022-08-21T03:46:05;74398.09;;;-145.10;37.23
56334;BME280;42240;53.626;55.886;2022-08-21T03:47:39;74247.88;;;-145.10;35.65
56334;BME280;42240;53.626;55.886;2022-08-21T03:49:12;74182.69;;;-145.10;35.24
56334;BME280;42240;53.626;55.886;2022-08-21T03:50:46;74162.91;;;-145.10;34.67
56334;BME280;42240;53.626;55.886;2022-08-21T03:52:20;74160.94;;;-145.10;33.87
56334;BME280;42240;53.626;55.886;2022-08-21T03:53:53;74125.38;;;-145.10;33.19
56334;BME280;42240;53.626;55.886;2022-08-21T03:55:27;74204.41;;;-145.10;33.74
56334;BME280;42240;53.626;55.886;2022-08-21T03:57:00;74247.88;;;-145.10;34.39
56334;BME280;42240;53.626;55.886;2022-08-21T03:58:33;74263.69;;;-145.10;35.17
56334;BME280;42240;53.626;55.886;2022-08-21T04:00:07;74176.75;;;-145.10;34.62
56334;BME280;42240;53.626;55.886;2022-08-21T04:01:55;74220.22;;;-145.10;34.51
56334;BME280;42240;53.626;55.886;2022-08-21T04:03:29;74172.78;;;-145.10;33.71
56334;BME280;42240;53.626;55.886;2022-08-21T04:05:03;74218.25;;;-145.10;34.17
56334;BME280;42240;53.626;55.886;2022-08-21T04:06:36;74234.06;;;-145.10;34.58
56334;BME280;42240;53.626;55.886;2022-08-21T04:08:11;74192.56;;;-145.10;34.75
56334;BME280;42240;53.626;55.886;2022-08-21T04:09:44;74330.88;;;-145.10;35.38
56334;BME280;42240;53.626;55.886;2022-08-21T04:11:22;74307.19;;;-145.10;35.77
56334;BME280;42240;53.626;55.886;2022-08-21T04:12:56;74261.72;;;-145.10;35.28
56334;BME280;42240;53.626;55.886;2022-08-21T04:14:29;74259.75;;;-145.10;34.99
56334;BME280;42240;53.626;55.886;2022-08-21T04:16:03;74245.91;;;-145.10;34.65
56334;BME280;42240;53.626;55.886;2022-08-21T04:17:37;74208.38;;;-145.10;34.72
56334;BME280;42240;53.626;55.886;2022-08-21T04:19:11;74238.00;;;-145.10;34.35
56334;BME280;42240;53.626;55.886;2022-08-21T04:20:46;74277.53;;;-145.10;35.04
56334;BME280;42240;53.626;55.886;2022-08-21T04:22:21;74243.94;;;-145.10;34.70
56334;BME280;42240;53.626;55.886;2022-08-21T04:23:55;74451.44;;;-145.10;36.43
56334;BME280;42240;53.626;55.886;2022-08-21T04:25:28;74362.50;;;-145.10;36.43
56334;BME280;42240;53.626;55.886;2022-08-21T04:27:02;74358.56;;;-145.10;36.25
56334;BME280;42240;53.626;55.886;2022-08-21T04:28:35;74402.03;;;-145.10;36.71
56334;BME280;42240;53.626;55.886;2022-08-21T04:30:09;74370.41;;;-145.10;36.15
56334;BME280;42240;53.626;55.886;2022-08-21T04:31:42;74366.47;;;-145.10;36.17
56334;BME280;42240;53.626;55.886;2022-08-21T04:33:16;74358.56;;;-145.10;36.39
56334;BME280;42240;53.626;55.886;2022-08-21T04:34:49;74295.31;;;-145.10;35.78
56334;BME280;42240;53.626;55.886;2022-08-21T04:36:23;74263.69;;;-145.10;35.39
56334;BME280;42240;53.626;55.886;2022-08-21T04:37:58;74222.19;;;-145.10;35.18
56334;BME280;42240;53.626;55.886;2022-08-21T04:39:31;74342.75;;;-145.10;35.49
56334;BME280;42240;53.626;55.886;2022-08-21T04:41:05;74398.09;;;-145.10;36.69
56334;BME280;42240;53.626;55.886;2022-08-21T04:42:46;74425.75;;;-145.10;36.63
56334;BME280;42240;53.626;55.886;2022-08-21T04:44:19;74330.88;;;-145.10;36.44
56334;BME280;42240;53.626;55.886;2022-08-21T04:45:53;74295.31;;;-145.10;35.74
56334;BME280;42240;53.626;55.886;2022-08-21T04:47:27;74315.09;;;-145.10;35.90
56334;BME280;42240;53.626;55.886;2022-08-21T04:49:21;74275.56;;;-145.10;35.72
56334;BME280;42240;53.626;55.886;2022-08-21T04:52:44;74127.34;;;-145.10;34.15
56334;BME280;42240;53.626;55.886;2022-08-21T04:54:19;74170.81;;;-145.10;34.14
56334;BME280;42240;53.626;55.886;2022-08-21T04:55:53;74196.50;;;-145.10;34.53
56334;BME280;42240;53.626;55.886;2022-08-21T04:57:28;74236.03;;;-145.10;34.86
56334;BME280;42240;53.626;55.886;2022-08-21T04:59:21;74202.44;;;-145.10;34.36
56334;BME280;42240;53.626;55.886;2022-08-21T05:00:56;74202.44;;;-145.10;34.12
56334;BME280;42240;53.626;55.886;2022-08-21T05:02:30;74099.66;;;-145.10;33.63
56334;BME280;42240;53.626;55.886;2022-08-21T05:04:05;74192.56;;;-145.10;34.41
56334;BME280;42240;53.626;55.886;2022-08-21T05:05:41;74194.53;;;-145.10;34.00
56334;BME280;42240;53.626;55.886;2022-08-21T05:07:17;74192.56;;;-145.10;34.53
56334;BME280;42240;53.626;55.886;2022-08-21T05:09:12;74251.84;;;-145.10;35.10
56334;BME280;42240;53.626;55.886;2022-08-21T05:10:46;74170.81;;;-145.10;34.86
56334;BME280;42240;53.626;55.886;2022-08-21T05:12:21;74234.06;;;-145.10;34.77
56334;BME280;42240;53.626;55.886;2022-08-21T05:13:55;74160.94;;;-145.10;34.59
56334;BME280;42240;53.626;55.886;2022-08-21T05:15:29;74156.97;;;-145.10;34.05
56334;BME280;42240;53.626;55.886;2022-08-21T05:17:03;74186.63;;;-145.10;34.68
56334;BME280;42240;53.626;55.886;2022-08-21T05:18:37;74125.38;;;-145.10;33.92
56334;BME280;42240;53.626;55.886;2022-08-21T05:20:14;74137.22;;;-145.10;33.82
56334;BME280;42240;53.626;55.886;2022-08-21T05:21:48;74131.28;;;-145.10;33.61
56334;BME280;42240;53.626;55.886;2022-08-21T05:23:21;74196.50;;;-145.10;34.50
56334;BME280;42240;53.626;55.886;2022-08-21T05:24:56;74064.09;;;-145.10;34.38
56334;BME280;42240;53.626;55.886;2022-08-21T05:26:30;74060.16;;;-145.10;33.70
56334;BME280;42240;53.626;55.886;2022-08-21T05:28:06;74151.06;;;-145.10;34.19
56334;BME280;42240;53.626;55.886;2022-08-21T05:29:43;74182.69;;;-145.10;34.17
56334;BME280;42240;53.626;55.886;2022-08-21T05:31:17;74115.47;;;-145.10;34.35
56334;BME280;42240;53.626;55.886;2022-08-21T05:32:55;74178.72;;;-145.10;34.09
56334;BME280;42240;53.626;55.886;2022-08-21T05:34:29;74109.56;;;-145.10;34.12
56334;BME280;42240;53.626;55.886;2022-08-21T05:36:03;74115.47;;;-145.10;34.04
56334;BME280;42240;53.626;55.886;2022-08-21T05:37:36;74160.94;;;-145.10;33.91
56334;BME280;42240;53.626;55.886;2022-08-21T05:39:16;74184.66;;;-145.10;34.27
56334;BME280;42240;53.626;55.886;2022-08-21T05:40:49;74184.66;;;-145.10;34.60
56334;BME280;42240;53.626;55.886;2022-08-21T05:42:23;74216.28;;;-145.10;34.52
56334;BME280;42240;53.626;55.886;2022-08-21T05:43:56;74158.97;;;-145.10;34.11
56334;BME280;42240;53.626;55.886;2022-08-21T05:45:31;74149.06;;;-145.10;34.19
56334;BME280;42240;53.626;55.886;2022-08-21T05:47:15;74121.41;;;-145.10;34.03
56334;BME280;42240;53.626;55.886;2022-08-21T05:48:51;74079.91;;;-145.10;33.58
56334;BME280;42240;53.626;55.886;2022-08-21T05:50:25;74089.78;;;-145.10;33.44
56334;BME280;42240;53.626;55.886;2022-08-21T05:52:04;74075.97;;;-145.10;33.47
56334;BME280;42240;53.626;55.886;2022-08-21T05:53:38;74073.97;;;-145.10;33.37
56334;BME280;42240;53.626;55.886;2022-08-21T05:55:12;74109.56;;;-145.10;33.89
56334;BME280;42240;53.626;55.886;2022-08-21T05:56:46;74054.22;;;-145.10;33.22
56334;BME280;42240;53.626;55.886;2022-08-21T05:58:20;74236.03;;;-145.10;34.53
56334;BME280;42240;53.626;55.886;2022-08-21T05:59:53;74210.34;;;-145.10;34.44
56334;BME280;42240;53.626;55.886;2022-08-21T06:01:27;74188.59;;;-145.10;34.85
56334;BME280;42240;53.626;55.886;2022-08-21T06:03:03;74147.09;;;-145.10;34.71
56334;BME280;42240;53.626;55.886;2022-08-21T06:04:37;74176.75;;;-145.10;34.35
56334;BME280;42240;53.626;55.886;2022-08-21T06:06:11;74198.47;;;-145.10;34.86
56334;BME280;42240;53.626;55.886;2022-08-21T06:07:44;74299.28;;;-145.10;35.92
56334;BME280;42240;53.626;55.886;2022-08-21T06:09:18;74178.72;;;-145.10;35.11
56334;BME280;42240;53.626;55.886;2022-08-21T06:10:52;74125.38;;;-145.10;34.50
56334;BME280;42240;53.626;55.886;2022-08-21T06:12:25;74109.56;;;-145.10;34.08
56334;BME280;42240;53.626;55.886;2022-08-21T06:13:59;74239.97;;;-145.10;35.25
56334;BME280;42240;53.626;55.886;2022-08-21T06:15:32;74281.47;;;-145.10;35.76
56334;BME280;42240;53.626;55.886;2022-08-21T06:17:10;74287.41;;;-145.10;35.92
56334;BME280;42240;53.626;55.886;2022-08-21T06:18:44;74168.84;;;-145.10;35.67
56334;BME280;42240;53.626;55.886;2022-08-21T06:20:17;74218.25;;;-145.10;34.87
56334;BME280;42240;53.626;55.886;2022-08-21T06:21:51;74054.22;;;-145.10;34.74
56334;BME280;42240;53.626;55.886;2022-08-21T06:23:25;74097.69;;;-145.10;34.25
56334;BME280;42240;53.626;55.886;2022-08-21T06:25:05;74101.66;;;-145.10;34.50
56334;BME280;42240;53.626;55.886;2022-08-21T06:26:38;74192.56;;;-145.10;34.89
56334;BME280;42240;53.626;55.886;2022-08-21T06:28:12;74073.97;;;-145.10;35.07
56334;BME280;42240;53.626;55.886;2022-08-21T06:29:45;74083.88;;;-145.10;34.58
56334;BME280;42240;53.626;55.886;2022-08-21T06:31:19;74048.28;;;-145.10;34.47
56334;BME280;42240;53.626;55.886;2022-08-21T06:32:53;74056.19;;;-145.10;34.67
56334;BME280;42240;53.626;55.886;2022-08-21T06:34:27;74072.00;;;-145.10;34.47
56334;BME280;42240;53.626;55.886;2022-08-21T06:36:00;74121.41;;;-145.10;34.84
56334;BME280;42240;53.626;55.886;2022-08-21T06:37:33;74188.59;;;-145.10;35.78
56334;BME280;42240;53.626;55.886;2022-08-21T06:39:06;74208.38;;;-145.10;35.84
56334;BME280;42240;53.626;55.886;2022-08-21T06:41:00;74228.13;;;-145.10;36.15
56334;BME280;42240;53.626;55.886;2022-08-21T06:42:36;74249.88;;;-145.10;36.70
56334;BME280;42240;53.626;55.886;2022-08-21T06:44:15;74305.19;;;-145.10;37.23
56334;BME280;42240;53.626;55.886;2022-08-21T06:45:48;74289.38;;;-145.10;37.74
56334;BME280;42240;53.626;55.886;2022-08-21T06:47:25;74332.88;;;-145.10;37.96
56334;BME280;42240;53.626;55.886;2022-08-21T06:48:59;74352.63;;;-145.10;37.89
56334;BME280;42240;53.626;55.886;2022-08-21T06:50:33;74378.31;;;-145.10;38.69
56334;BME280;42240;53.626;55.886;2022-08-21T06:52:11;74291.38;;;-145.10;38.33
56334;BME280;42240;53.626;55.886;2022-08-21T06:53:44;74354.59;;;-145.10;37.78
56334;BME280;42240;53.626;55.886;2022-08-21T06:55:17;74429.72;;;-145.10;38.81
56334;BME280;42240;53.626;55.886;2022-08-21T06:56:53;74433.66;;;-145.10;39.17
56334;BME280;42240;53.626;55.886;2022-08-21T06:58:27;74417.84;;;-145.10;39.26
56334;BME280;42240;53.626;55.886;2022-08-21T07:00:02;74425.75;;;-145.10;39.31
56334;BME280;42240;53.626;55.886;2022-08-21T07:01:35;74409.94;;;-145.10;39.76
56334;BME280;42240;53.626;55.886;2022-08-21T07:03:16;74417.84;;;-145.10;39.31
56334;BME280;42240;53.626;55.886;2022-08-21T07:04:50;74469.22;;;-145.10;39.58
56334;BME280;42240;53.626;55.886;2022-08-21T07:06:24;74510.75;;;-145.10;39.97
56334;BME280;42240;53.626;55.886;2022-08-21T07:07:58;74546.31;;;-145.10;40.72
56334;BME280;42240;53.626;55.886;2022-08-21T07:09:32;74526.53;;;-145.10;40.59
56334;BME280;42240;53.626;55.886;2022-08-21T07:11:11;74496.91;;;-145.10;40.21
56334;BME280;42240;53.626;55.886;2022-08-21T07:12:48;74524.56;;;-145.10;40.41
56334;BME280;42240;53.626;55.886;2022-08-21T07:14:32;74489.00;;;-145.10;40.45
56334;BME280;42240;53.626;55.886;2022-08-21T07:16:06;74504.81;;;-145.10;40.10
56334;BME280;42240;53.626;55.886;2022-08-21T07:17:39;74520.63;;;-145.10;40.34
56334;BME280;42240;53.626;55.886;2022-08-21T07:19:15;74564.09;;;-145.10;40.46
56334;BME280;42240;53.626;55.886;2022-08-21T07:20:51;74564.09;;;-145.10;41.08
56334;BME280;42240;53.626;55.886;2022-08-21T07:22:25;74566.06;;;-145.10;40.69
56334;BME280;42240;53.626;55.886;2022-08-21T07:24:00;74500.84;;;-145.10;40.51
56334;BME280;42240;53.626;55.886;2022-08-21T07:25:33;74445.50;;;-145.10;39.86
56334;BME280;42240;53.626;55.886;2022-08-21T07:27:07;74552.25;;;-145.10;39.92
56334;BME280;42240;53.626;55.886;2022-08-21T07:28:42;74554.22;;;-145.10;40.87
56334;BME280;42240;53.626;55.886;2022-08-21T07:30:16;74530.50;;;-145.10;40.89
56334;BME280;42240;53.626;55.886;2022-08-21T07:31:53;74504.81;;;-145.10;40.13
56334;BME280;42240;53.626;55.886;2022-08-21T07:33:28;74445.50;;;-145.10;39.93
56334;BME280;42240;53.626;55.886;2022-08-21T07:35:01;74429.72;;;-145.10;39.91
56334;BME280;42240;53.626;55.886;2022-08-21T07:36:35;74500.84;;;-145.10;39.24
56334;BME280;42240;53.626;55.886;2022-08-21T07:38:13;74492.94;;;-145.10;39.56
56334;BME280;42240;53.626;55.886;2022-08-21T07:39:46;74479.13;;;-145.10;38.88
56334;BME280;42240;53.626;55.886;2022-08-21T07:41:25;74496.91;;;-145.10;39.32
56334;BME280;42240;53.626;55.886;2022-08-21T07:42:59;74451.44;;;-145.10;39.20
56334;BME280;42240;53.626;55.886;2022-08-21T07:44:33;74441.56;;;-145.10;39.61
56334;BME280;42240;53.626;55.886;2022-08-21T07:46:08;74477.13;;;-145.10;39.00
56334;BME280;42240;53.626;55.886;2022-08-21T07:47:42;74479.13;;;-145.10;39.18
56334;BME280;42240;53.626;55.886;2022-08-21T07:49:15;74441.56;;;-145.10;39.23
56334;BME280;42240;53.626;55.886;2022-08-21T07:50:49;74518.66;;;-145.10;39.60
56334;BME280;42240;53.626;55.886;2022-08-21T07:52:23;74520.63;;;-145.10;39.62
56334;BME280;42240;53.626;55.886;2022-08-21T07:54:03;74477.13;;;-145.10;39.07
56334;BME280;42240;53.626;55.886;2022-08-21T07:55:36;74479.13;;;-145.10;39.09
56334;BME280;42240;53.626;55.886;2022-08-21T07:57:10;74485.03;;;-145.10;38.95
56334;BME280;42240;53.626;55.886;2022-08-21T07:58:43;74494.94;;;-145.10;39.15
56334;BME280;42240;53.626;55.886;2022-08-21T08:00:18;74490.97;;;-145.10;38.84
56334;BME280;42240;53.626;55.886;2022-08-21T08:01:52;74512.72;;;-145.10;39.10
56334;BME280;42240;53.626;55.886;2022-08-21T08:03:25;74538.41;;;-145.10;39.18
56334;BME280;42240;53.626;55.886;2022-08-21T08:05:01;74532.47;;;-145.10;39.11
56334;BME280;42240;53.626;55.886;2022-08-21T08:06:34;74552.25;;;-145.10;39.31